Time;durP1;ratioP1;P1;durP2;ratioP2;P2;SDS_P1;SDS_P2;PMS_P1;PMS_P2;Temp;Humidity;BMP_temperature;BMP_pressure;BME280_temperature;BME280_humidity;BME280_pressure;Samples;Min_cycle;Max_cycle;Signal;HPM_P1;HPM_P2
2022/10/28 04:02:25;;;;;;;4.75;4.00;;;;;;;;;;5125168;22;20425;-86
2022/10/28 04:04:54;;;;;;;6.07;3.63;;;;;;;;;;5041270;28;20441;-85
2022/10/28 04:07:20;;;;;;;6.20;3.88;;;;;;;;;;5018982;28;20845;-86
2022/10/28 04:09:50;;;;;;;4.00;3.60;;;;;;;;;;5045178;28;20382;-85
2022/10/28 04:12:16;;;;;;;7.57;4.22;;;;;;;;;;5051523;28;20376;-86
2022/10/28 04:14:42;;;;;;;5.70;3.70;;;;;;;;;;5032911;28;20459;-86
2022/10/28 04:17:08;;;;;;;6.28;3.75;;;;;;;;;;5052823;28;20867;-86
2022/10/28 04:19:39;;;;;;;6.22;4.10;;;;;;;;;;5033288;28;20416;-86
2022/10/28 04:22:05;;;;;;;5.78;3.42;;;;;;;;;;5036689;28;20763;-86
2022/10/28 04:24:31;;;;;;;6.45;3.58;;;;;;;;;;5020020;28;20405;-86
2022/10/28 04:27:00;;;;;;;4.60;3.23;;;;;;;;;;5026133;28;20393;-85
2022/10/28 04:29:26;;;;;;;3.85;3.45;;;;;;;;;;5027303;28;20391;-86
2022/10/28 04:31:52;;;;;;;3.60;3.30;;;;;;;;;;5050933;28;20381;-86
2022/10/28 04:34:18;;;;;;;4.80;3.50;;;;;;;;;;5049087;28;20386;-86
2022/10/28 04:36:44;;;;;;;3.60;3.30;;;;;;;;;;5040508;28;20815;-86
2022/10/28 04:39:10;;;;;;;4.07;3.67;;;;;;;;;;5040009;28;20383;-87
2022/10/28 04:41:36;;;;;;;4.40;3.83;;;;;;;;;;5051604;28;20378;-86
2022/10/28 04:44:02;;;;;;;4.60;3.47;;;;;;;;;;5051862;28;20508;-86
2022/10/28 04:46:28;;;;;;;3.60;3.30;;;;;;;;;;5052544;28;20807;-86
2022/10/28 04:48:54;;;;;;;3.80;3.40;;;;;;;;;;5051975;28;20413;-86
2022/10/28 04:51:20;;;;;;;4.07;3.67;;;;;;;;;;5052834;28;20378;-86
2022/10/28 04:53:46;;;;;;;4.63;3.60;;;;;;;;;;5052736;28;20859;-86
2022/10/28 04:56:12;;;;;;;5.72;3.78;;;;;;;;;;5047376;28;20386;-86
2022/10/28 04:58:38;;;;;;;4.63;3.95;;;;;;;;;;5025936;28;20391;-86
2022/10/28 05:01:05;;;;;;;5.25;3.75;;;;;;;;;;5052912;28;20921;-86
2022/10/28 05:03:31;;;;;;;4.30;3.90;;;;;;;;;;5053153;28;20401;-84
2022/10/28 05:05:57;;;;;;;5.20;4.25;;;;;;;;;;5052814;28;20381;-85
2022/10/28 05:08:23;;;;;;;5.60;4.20;;;;;;;;;;5052838;28;20923;-86
2022/10/28 05:10:49;;;;;;;5.90;4.13;;;;;;;;;;5038232;28;20451;-86
2022/10/28 05:13:16;;;;;;;9.85;6.45;;;;;;;;;;5034950;28;20378;-86
2022/10/28 05:15:42;;;;;;;5.28;4.10;;;;;;;;;;5052670;28;20863;-85
2022/10/28 05:18:08;;;;;;;6.78;4.00;;;;;;;;;;5052607;28;20397;-85
2022/10/28 05:20:34;;;;;;;5.72;4.43;;;;;;;;;;5052558;28;20385;-85
2022/10/28 05:23:00;;;;;;;5.85;3.88;;;;;;;;;;5052426;28;20867;-86
2022/10/28 05:25:26;;;;;;;6.55;4.32;;;;;;;;;;5052551;28;20389;-86
2022/10/28 05:27:52;;;;;;;6.95;4.20;;;;;;;;;;5052487;28;20409;-85
2022/10/28 05:30:19;;;;;;;3.92;3.42;;;;;;;;;;5052378;28;20920;-85
2022/10/28 05:32:45;;;;;;;5.40;4.30;;;;;;;;;;5052349;28;20373;-86
2022/10/28 05:35:11;;;;;;;5.95;5.10;;;;;;;;;;5034322;28;20418;-86
2022/10/28 05:37:37;;;;;;;6.20;5.60;;;;;;;;;;5034411;28;20389;-86
2022/10/28 05:40:03;;;;;;;8.23;5.93;;;;;;;;;;5039334;28;20377;-86
2022/10/28 05:42:32;;;;;;;6.07;5.43;;;;;;;;;;5052228;28;20738;-85
2022/10/28 05:44:58;;;;;;;5.85;5.35;;;;;;;;;;5052055;28;20471;-85
2022/10/28 05:47:24;;;;;;;8.15;6.60;;;;;;;;;;5034362;28;20378;-86
2022/10/28 05:49:53;;;;;;;6.75;5.00;;;;;;;;;;5052056;28;20882;-85
2022/10/28 05:52:27;;;;;;;8.52;4.68;;;;;;;;;;5052120;28;20914;-85
2022/10/28 05:54:53;;;;;;;4.85;4.30;;;;;;;;;;5034223;28;20723;-84
2022/10/28 05:57:19;;;;;;;5.22;4.22;;;;;;;;;;5043507;28;20401;-84
2022/10/28 05:59:51;;;;;;;4.82;4.38;;;;;;;;;;5052034;28;20433;-87
2022/10/28 06:02:26;;;;;;;6.50;5.03;;;;;;;;;;5051810;28;20405;-87
2022/10/28 06:04:52;;;;;;;5.60;5.10;;;;;;;;;;5052321;28;20413;-86
2022/10/28 06:07:18;;;;;;;5.40;4.90;;;;;;;;;;5033712;28;20393;-87
2022/10/28 06:09:49;;;;;;;5.78;5.25;;;;;;;;;;5052121;28;20377;-86
2022/10/28 06:12:15;;;;;;;6.00;5.40;;;;;;;;;;5047192;28;20500;-87
2022/10/28 06:14:41;;;;;;;5.75;4.90;;;;;;;;;;5051766;28;20997;-86
2022/10/28 06:17:10;;;;;;;5.50;4.97;;;;;;;;;;5051614;28;20381;-87
2022/10/28 06:19:36;;;;;;;7.43;5.90;;;;;;;;;;5051813;28;20952;-86
2022/10/28 06:22:02;;;;;;;5.50;5.00;;;;;;;;;;5051890;28;20424;-86
2022/10/28 06:24:30;;;;;;;6.43;5.57;;;;;;;;;;5051655;28;20492;-85
2022/10/28 06:26:56;;;;;;;6.03;5.27;;;;;;;;;;5051481;28;20384;-86
2022/10/28 06:29:22;;;;;;;6.88;5.55;;;;;;;;;;5044071;28;20745;-86
2022/10/28 06:31:54;;;;;;;7.18;5.53;;;;;;;;;;5050172;28;20385;-86
2022/10/28 06:34:20;;;;;;;6.55;5.65;;;;;;;;;;5039574;28;20398;-87
2022/10/28 06:36:46;;;;;;;8.57;6.43;;;;;;;;;;5050881;28;20854;-86
2022/10/28 06:39:12;;;;;;;8.88;7.97;;;;;;;;;;5051722;28;20431;-86
2022/10/28 06:41:38;;;;;;;6.72;6.10;;;;;;;;;;5053848;28;20867;-86
2022/10/28 06:44:04;;;;;;;8.68;7.57;;;;;;;;;;5046300;28;20417;-86
2022/10/28 06:46:30;;;;;;;8.57;7.25;;;;;;;;;;5046760;28;20830;-86
2022/10/28 06:48:56;;;;;;;7.75;6.70;;;;;;;;;;5044541;28;20374;-85
2022/10/28 06:51:23;;;;;;;7.70;7.00;;;;;;;;;;5055338;28;20778;-86
2022/10/28 06:53:52;;;;;;;7.40;6.65;;;;;;;;;;5055351;28;20393;-86
2022/10/28 06:56:18;;;;;;;6.78;5.85;;;;;;;;;;5048570;28;20384;-86
2022/10/28 06:58:53;;;;;;;8.77;5.97;;;;;;;;;;5051461;28;20385;-86
2022/10/28 07:01:19;;;;;;;6.60;4.95;;;;;;;;;;5055022;28;20409;-86
2022/10/28 07:03:48;;;;;;;6.25;5.65;;;;;;;;;;5055129;28;20508;-86
2022/10/28 07:06:18;;;;;;;6.72;6.13;;;;;;;;;;5054855;28;20387;-86
2022/10/28 07:08:44;;;;;;;6.90;5.93;;;;;;;;;;5037026;28;20773;-86
2022/10/28 07:11:10;;;;;;;7.30;6.35;;;;;;;;;;5054983;28;20965;-87
2022/10/28 07:13:36;;;;;;;7.68;6.80;;;;;;;;;;5055947;28;20428;-85
2022/10/28 07:16:02;;;;;;;8.05;7.25;;;;;;;;;;5054530;28;20898;-85
2022/10/28 07:18:28;;;;;;;8.75;8.00;;;;;;;;;;5055216;28;20467;-85
2022/10/28 07:20:57;;;;;;;9.57;7.40;;;;;;;;;;5040761;28;20376;-85
2022/10/28 07:23:26;;;;;;;10.02;6.95;;;;;;;;;;5027482;28;20909;-85
2022/10/28 07:25:55;;;;;;;7.50;6.70;;;;;;;;;;5054514;28;20392;-85
2022/10/28 07:28:22;;;;;;;9.73;6.57;;;;;;;;;;5054759;28;20373;-85
2022/10/28 07:30:48;;;;;;;5.60;5.07;;;;;;;;;;5046695;28;20887;-85
2022/10/28 07:33:17;;;;;;;6.38;5.78;;;;;;;;;;5051962;28;20473;-85
2022/10/28 07:35:43;;;;;;;11.73;8.68;;;;;;;;;;5054517;28;20867;-85
2022/10/28 07:38:09;;;;;;;9.93;7.60;;;;;;;;;;5054611;28;20377;-85
2022/10/28 07:40:35;;;;;;;12.65;8.07;;;;;;;;;;5054363;28;20388;-85
2022/10/28 07:43:04;;;;;;;10.30;9.10;;;;;;;;;;5054377;28;20738;-85
2022/10/28 07:45:30;;;;;;;11.30;9.97;;;;;;;;;;5054734;28;20720;-85
2022/10/28 07:47:56;;;;;;;10.65;8.40;;;;;;;;;;5054239;28;20862;-85
2022/10/28 07:50:25;;;;;;;12.57;9.93;;;;;;;;;;5054327;28;20476;-85
2022/10/28 07:53:06;;;;;;;10.80;8.88;;;;;;;;;;5052932;28;20390;-85
2022/10/28 07:55:39;;;;;;;16.48;8.90;;;;;;;;;;5054493;28;20449;-85
2022/10/28 07:58:21;;;;;;;10.70;7.43;;;;;;;;;;5054274;28;20382;-85
2022/10/28 08:00:50;;;;;;;9.70;7.15;;;;;;;;;;5053964;28;20420;-85
2022/10/28 08:03:18;;;;;;;10.48;7.30;;;;;;;;;;5054254;28;20779;-85
2022/10/28 08:05:44;;;;;;;12.50;7.60;;;;;;;;;;5053946;28;20726;-85
2022/10/28 08:08:10;;;;;;;9.52;8.18;;;;;;;;;;5053998;28;20773;-85
2022/10/28 08:10:50;;;;;;;9.82;7.60;;;;;;;;;;5050269;28;20378;-85
2022/10/28 08:13:16;;;;;;;8.73;7.50;;;;;;;;;;5053874;28;20755;-85
2022/10/28 08:15:42;;;;;;;10.45;7.70;;;;;;;;;;5053829;28;20416;-85
2022/10/28 08:18:08;;;;;;;9.75;7.70;;;;;;;;;;5053746;28;20381;-85
2022/10/28 08:20:34;;;;;;;8.20;7.40;;;;;;;;;;5053629;28;20452;-85
2022/10/28 08:23:00;;;;;;;8.57;7.72;;;;;;;;;;5053550;28;20413;-85
2022/10/28 08:25:46;;;;;;;8.98;7.93;;;;;;;;;;5053692;28;20401;-85
2022/10/28 08:28:15;;;;;;;9.63;8.38;;;;;;;;;;5031776;28;20408;-85
2022/10/28 08:30:43;;;;;;;12.77;8.20;;;;;;;;;;5053458;28;20377;-85
2022/10/28 08:33:17;;;;;;;8.60;7.70;;;;;;;;;;5053269;28;20382;-85
2022/10/28 08:35:53;;;;;;;12.17;9.17;;;;;;;;;;5053404;28;20405;-85
2022/10/28 08:38:27;;;;;;;12.20;8.90;;;;;;;;;;5046548;28;20469;-85
2022/10/28 08:41:10;;;;;;;13.05;9.73;;;;;;;;;;5039319;28;20402;-85
2022/10/28 08:43:48;;;;;;;12.00;9.57;;;;;;;;;;5053545;28;20898;-85
2022/10/28 08:46:14;;;;;;;13.82;11.75;;;;;;;;;;5053199;28;20863;-85
2022/10/28 08:48:44;;;;;;;14.63;10.77;;;;;;;;;;5053273;28;20413;-85
2022/10/28 08:51:19;;;;;;;13.97;9.90;;;;;;;;;;5053079;28;20393;-85
2022/10/28 08:54:02;;;;;;;10.68;9.68;;;;;;;;;;5036101;28;20742;-85
2022/10/28 08:56:32;;;;;;;11.18;9.50;;;;;;;;;;5053067;28;20790;-85
2022/10/28 08:59:06;;;;;;;12.57;9.85;;;;;;;;;;5053047;28;20389;-85
2022/10/28 09:01:55;;;;;;;13.40;10.10;;;;;;;;;;5053471;28;20389;-83
2022/10/28 09:04:34;;;;;;;14.77;11.05;;;;;;;;;;5052599;28;20409;-83
2022/10/28 09:07:03;;;;;;;15.80;11.77;;;;;;;;;;5052778;28;20382;-83
2022/10/28 09:09:32;;;;;;;16.17;11.75;;;;;;;;;;5052941;28;20373;-84
2022/10/28 09:12:04;;;;;;;14.30;12.25;;;;;;;;;;5052810;28;20920;-84
2022/10/28 09:14:41;;;;;;;19.40;13.63;;;;;;;;;;5052875;28;20420;-83
2022/10/28 09:17:26;;;;;;;18.73;14.10;;;;;;;;;;5052609;28;20386;-83
2022/10/28 09:19:53;;;;;;;17.33;13.27;;;;;;;;;;5042256;28;20375;-83
2022/10/28 09:22:34;;;;;;;18.58;13.75;;;;;;;;;;5033061;28;20521;-83
2022/10/28 09:25:26;;;;;;;20.45;15.75;;;;;;;;;;5048991;28;20413;-83
2022/10/28 09:27:55;;;;;;;23.48;15.75;;;;;;;;;;5017453;28;20445;-83
2022/10/28 09:30:27;;;;;;;22.08;14.57;;;;;;;;;;5036300;28;20375;-83
2022/10/28 09:33:05;;;;;;;21.80;14.60;;;;;;;;;;5052423;28;20381;-83
2022/10/28 09:35:33;;;;;;;17.00;13.45;;;;;;;;;;5052464;28;20404;-84
2022/10/28 09:38:06;;;;;;;16.58;13.15;;;;;;;;;;5052712;28;20386;-83
2022/10/28 09:40:37;;;;;;;21.23;14.20;;;;;;;;;;5052072;28;20393;-84
2022/10/28 09:43:19;;;;;;;17.95;13.10;;;;;;;;;;5052358;28;20419;-83
2022/10/28 09:45:50;;;;;;;19.25;14.40;;;;;;;;;;5034490;28;20840;-83
2022/10/28 09:48:25;;;;;;;19.38;13.90;;;;;;;;;;5052321;28;20434;-83
2022/10/28 09:50:53;;;;;;;19.38;14.40;;;;;;;;;;5052447;28;20892;-83
2022/10/28 09:53:44;;;;;;;21.77;16.15;;;;;;;;;;5052088;28;20512;-83
2022/10/28 09:56:10;;;;;;;24.65;17.60;;;;;;;;;;5052152;28;20377;-84
2022/10/28 09:58:42;;;;;;;23.00;16.20;;;;;;;;;;5052463;28;20381;-83
2022/10/28 10:01:08;;;;;;;23.02;16.02;;;;;;;;;;5051981;28;20496;-83
2022/10/28 10:03:34;;;;;;;19.98;15.52;;;;;;;;;;5051991;28;20483;-84
2022/10/28 10:06:14;;;;;;;26.58;16.38;;;;;;;;;;5052074;28;20402;-83
2022/10/28 10:08:41;;;;;;;21.33;15.30;;;;;;;;;;5042108;28;20770;-84
2022/10/28 10:11:23;;;;;;;21.83;14.73;;;;;;;;;;5043943;28;20408;-84
2022/10/28 10:13:50;;;;;;;27.25;15.50;;;;;;;;;;5051928;28;20779;-84
2022/10/28 10:16:25;;;;;;;25.88;16.50;;;;;;;;;;5045543;28;20446;-84
2022/10/28 10:18:54;;;;;;;25.02;17.15;;;;;;;;;;5054901;28;20389;-84
2022/10/28 10:21:39;;;;;;;25.73;16.77;;;;;;;;;;5055939;28;20377;-83
2022/10/28 10:24:29;;;;;;;32.78;17.85;;;;;;;;;;5055897;28;20540;-84
2022/10/28 10:27:24;;;;;;;22.45;16.00;;;;;;;;;;5056113;28;20384;-84
2022/10/28 10:29:51;;;;;;;23.65;15.55;;;;;;;;;;5005999;28;20389;-89
2022/10/28 10:32:21;;;;;;;17.58;12.02;;;;;;;;;;5055772;28;20866;-86
2022/10/28 10:34:57;;;;;;;16.67;11.75;;;;;;;;;;5049509;28;20444;-86
2022/10/28 10:37:23;;;;;;;19.55;12.27;;;;;;;;;;5055620;28;20385;-85
2022/10/28 10:40:00;;;;;;;10.40;9.00;;;;;;;;;;5055665;28;20396;-86
2022/10/28 10:42:28;;;;;;;11.40;8.85;;;;;;;;;;5055443;28;20719;-85
2022/10/28 10:45:02;;;;;;;11.18;8.10;;;;;;;;;;5051971;28;20401;-86
2022/10/28 10:47:28;;;;;;;12.65;9.45;;;;;;;;;;5055812;28;20920;-87
2022/10/28 10:50:16;;;;;;;16.43;10.83;;;;;;;;;;5055716;28;20439;-88
2022/10/28 10:52:47;;;;;;;15.55;9.95;;;;;;;;;;5055553;28;20389;-85
2022/10/28 10:55:19;;;;;;;11.38;9.05;;;;;;;;;;5037488;28;20389;-85
2022/10/28 10:57:46;;;;;;;13.90;7.53;;;;;;;;;;5055367;28;20464;-86
2022/10/28 11:00:16;;;;;;;9.48;7.63;;;;;;;;;;5055300;28;20830;-85
2022/10/28 11:02:46;;;;;;;9.75;5.82;;;;;;;;;;5054281;28;20397;-87
2022/10/28 11:05:12;;;;;;;7.70;5.70;;;;;;;;;;5042936;28;20411;-86
2022/10/28 11:07:42;;;;;;;11.32;7.10;;;;;;;;;;5036899;28;20874;-86
2022/10/28 11:10:20;;;;;;;9.60;5.97;;;;;;;;;;5051519;28;20418;-86
2022/10/28 11:13:09;;;;;;;5.90;4.20;;;;;;;;;;5046093;28;20373;-87
2022/10/28 11:15:35;;;;;;;6.27;4.17;;;;;;;;;;5054934;28;20436;-86
2022/10/28 11:18:10;;;;;;;6.82;4.30;;;;;;;;;;5054946;28;20436;-87
2022/10/28 11:20:48;;;;;;;5.68;4.70;;;;;;;;;;5054920;28;20401;-86
2022/10/28 11:23:33;;;;;;;11.10;6.95;;;;;;;;;;5044896;28;20379;-86
2022/10/28 11:26:01;;;;;;;12.02;8.00;;;;;;;;;;5051239;28;20373;-87
2022/10/28 11:28:48;;;;;;;11.48;7.97;;;;;;;;;;5054525;28;20412;-86
2022/10/28 11:31:29;;;;;;;13.88;7.78;;;;;;;;;;5054601;28;20373;-85
2022/10/28 11:34:00;;;;;;;9.70;6.70;;;;;;;;;;5054688;28;20778;-85
2022/10/28 11:36:38;;;;;;;10.57;6.97;;;;;;;;;;5054600;28;20377;-84
2022/10/28 11:39:13;;;;;;;11.70;7.45;;;;;;;;;;5054519;28;20381;-85
2022/10/28 11:41:45;;;;;;;10.00;6.97;;;;;;;;;;5054413;28;20957;-84
2022/10/28 11:44:29;;;;;;;8.23;6.35;;;;;;;;;;5054474;28;20460;-84
2022/10/28 11:47:18;;;;;;;9.65;6.15;;;;;;;;;;5054371;28;20386;-84
2022/10/28 11:49:44;;;;;;;9.27;5.87;;;;;;;;;;5054258;28;20436;-84
2022/10/28 11:52:13;;;;;;;9.23;7.05;;;;;;;;;;5054342;28;20457;-85
2022/10/28 11:54:57;;;;;;;6.95;6.25;;;;;;;;;;5054261;28;20382;-85
2022/10/28 11:57:26;;;;;;;6.45;5.82;;;;;;;;;;5037406;28;20394;-88
2022/10/28 12:00:00;;;;;;;7.90;5.88;;;;;;;;;;5043468;28;20398;-88
2022/10/28 12:02:26;;;;;;;13.18;7.97;;;;;;;;;;5028503;28;20816;-83
2022/10/28 12:05:00;;;;;;;17.45;9.13;;;;;;;;;;5049350;28;20476;-84
2022/10/28 12:07:48;;;;;;;9.50;6.68;;;;;;;;;;5054276;28;20378;-85
2022/10/28 12:10:20;;;;;;;7.32;5.45;;;;;;;;;;5053970;28;20511;-84
2022/10/28 12:12:53;;;;;;;6.68;4.38;;;;;;;;;;5053766;28;20460;-84
2022/10/28 12:15:40;;;;;;;5.87;3.50;;;;;;;;;;5053943;28;20474;-84
2022/10/28 12:18:24;;;;;;;5.97;3.75;;;;;;;;;;5053791;28;20384;-84
2022/10/28 12:21:06;;;;;;;6.20;3.47;;;;;;;;;;5053533;28;20417;-83
2022/10/28 12:23:34;;;;;;;6.17;3.90;;;;;;;;;;5045394;28;20411;-87
2022/10/28 12:26:01;;;;;;;6.28;3.67;;;;;;;;;;5044089;28;20886;-87
2022/10/28 12:28:30;;;;;;;6.38;3.75;;;;;;;;;;5053879;28;20389;-87
2022/10/28 12:31:02;;;;;;;5.30;3.40;;;;;;;;;;5053375;28;20389;-87
2022/10/28 12:33:30;;;;;;;5.05;3.08;;;;;;;;;;5048840;28;20851;-86
2022/10/28 12:36:27;;;;;;;7.35;3.10;;;;;;;;;;5053441;28;20401;-86
2022/10/28 12:39:11;;;;;;;5.30;3.20;;;;;;;;;;5053018;28;20409;-87
2022/10/28 12:41:56;;;;;;;4.63;3.45;;;;;;;;;;5053467;28;20381;-87
2022/10/28 12:44:23;;;;;;;6.90;4.28;;;;;;;;;;5052324;28;20431;-86
2022/10/28 12:46:49;;;;;;;10.35;6.18;;;;;;;;;;5041342;28;20436;-87
2022/10/28 12:49:20;;;;;;;10.45;6.07;;;;;;;;;;5053356;28;20878;-86
2022/10/28 12:51:46;;;;;;;9.98;6.72;;;;;;;;;;5053122;28;20385;-87
2022/10/28 12:54:21;;;;;;;12.73;5.82;;;;;;;;;;5053131;28;20389;-87
2022/10/28 12:57:03;;;;;;;9.57;6.13;;;;;;;;;;5053180;28;20424;-87
2022/10/28 12:59:34;;;;;;;8.70;6.28;;;;;;;;;;5053157;28;20385;-88
2022/10/28 13:02:01;;;;;;;10.63;5.75;;;;;;;;;;5052356;28;20397;-87
2022/10/28 13:04:27;;;;;;;9.57;5.90;;;;;;;;;;5046577;28;20426;-89
2022/10/28 13:06:53;;;;;;;10.88;5.63;;;;;;;;;;5049353;28;20389;-87
2022/10/28 13:09:22;;;;;;;8.77;6.00;;;;;;;;;;5053416;28;20403;-87
2022/10/28 13:11:58;;;;;;;10.00;6.25;;;;;;;;;;5052415;28;20374;-87
2022/10/28 13:14:33;;;;;;;10.13;5.73;;;;;;;;;;5035000;28;20470;-87
2022/10/28 13:17:10;;;;;;;7.90;5.45;;;;;;;;;;5052996;28;20400;-88
2022/10/28 13:19:42;;;;;;;9.63;5.93;;;;;;;;;;5052885;28;20385;-88
2022/10/28 13:22:11;;;;;;;11.43;5.60;;;;;;;;;;5052627;28;20443;-88
2022/10/28 13:24:46;;;;;;;7.73;5.10;;;;;;;;;;5052483;28;20415;-87
2022/10/28 13:27:13;;;;;;;8.70;5.05;;;;;;;;;;5035656;28;20375;-88
2022/10/28 13:29:40;;;;;;;9.48;5.30;;;;;;;;;;5051035;28;20396;-88
2022/10/28 13:32:21;;;;;;;9.20;6.00;;;;;;;;;;5042966;28;20370;-87
2022/10/28 13:34:47;;;;;;;9.57;5.30;;;;;;;;;;5052456;28;20717;-89
2022/10/28 13:37:18;;;;;;;9.10;5.43;;;;;;;;;;5052511;28;20408;-88
2022/10/28 13:39:46;;;;;;;9.45;5.22;;;;;;;;;;5052252;28;20398;-88
2022/10/28 13:42:12;;;;;;;8.40;4.93;;;;;;;;;;5052432;28;20555;-88
2022/10/28 13:44:47;;;;;;;8.43;4.88;;;;;;;;;;5052086;28;20488;-88
2022/10/28 13:47:16;;;;;;;7.18;4.82;;;;;;;;;;5052268;28;20388;-87
2022/10/28 13:50:01;;;;;;;8.52;5.00;;;;;;;;;;5052053;28;20370;-87
2022/10/28 13:52:30;;;;;;;7.43;4.50;;;;;;;;;;5051993;28;20778;-89
2022/10/28 13:54:59;;;;;;;8.40;4.82;;;;;;;;;;5052076;28;20727;-88
2022/10/28 13:57:34;;;;;;;10.32;5.32;;;;;;;;;;5051974;28;20858;-88
2022/10/28 14:00:04;;;;;;;7.38;4.72;;;;;;;;;;5051955;28;20405;-88
2022/10/28 14:02:38;;;;;;;9.00;4.55;;;;;;;;;;5051826;28;20433;-87
2022/10/28 14:05:07;;;;;;;8.90;4.03;;;;;;;;;;5042635;28;20755;-87
2022/10/28 14:07:34;;;;;;;6.70;3.90;;;;;;;;;;5051846;28;20404;-87
2022/10/28 14:10:19;;;;;;;7.35;4.50;;;;;;;;;;5051897;28;20421;-88
2022/10/28 14:13:11;;;;;;;6.35;4.22;;;;;;;;;;5051842;28;20419;-87
2022/10/28 14:15:39;;;;;;;6.03;4.03;;;;;;;;;;5038771;28;20386;-88
2022/10/28 14:18:17;;;;;;;6.80;4.10;;;;;;;;;;5033922;28;20917;-88
2022/10/28 14:21:03;;;;;;;9.98;4.30;;;;;;;;;;5051704;28;20411;-89
2022/10/28 14:23:29;;;;;;;9.07;4.40;;;;;;;;;;5051783;28;20378;-87
2022/10/28 14:26:03;;;;;;;8.25;3.90;;;;;;;;;;5051875;28;20453;-88
2022/10/28 14:28:38;;;;;;;7.88;4.00;;;;;;;;;;5051653;28;20917;-88
2022/10/28 14:31:08;;;;;;;7.82;4.60;;;;;;;;;;5040192;28;20737;-88
2022/10/28 14:33:43;;;;;;;9.32;4.50;;;;;;;;;;5051744;28;20770;-87
2022/10/28 14:36:27;;;;;;;8.53;4.20;;;;;;;;;;5051699;28;20374;-88
2022/10/28 14:39:12;;;;;;;9.15;4.60;;;;;;;;;;5051839;28;20401;-87
2022/10/28 14:41:47;;;;;;;6.57;4.35;;;;;;;;;;5051476;28;20776;-87
2022/10/28 14:44:22;;;;;;;9.23;4.55;;;;;;;;;;5033732;28;20829;-88
2022/10/28 14:47:06;;;;;;;7.82;4.65;;;;;;;;;;5051658;28;20373;-88
2022/10/28 14:49:36;;;;;;;6.10;4.07;;;;;;;;;;5042876;28;20371;-88
2022/10/28 14:52:15;;;;;;;7.47;4.78;;;;;;;;;;5051511;28;20377;-89
2022/10/28 14:54:46;;;;;;;6.90;4.40;;;;;;;;;;5033863;28;20476;-89
2022/10/28 14:57:21;;;;;;;6.38;4.45;;;;;;;;;;5034756;28;20399;-90
2022/10/28 14:59:56;;;;;;;6.97;4.47;;;;;;;;;;5033547;28;20804;-90
2022/10/28 15:02:27;;;;;;;6.47;3.92;;;;;;;;;;5014252;28;20781;-90
2022/10/28 15:05:02;;;;;;;7.40;4.68;;;;;;;;;;5022740;28;20551;-90
2022/10/28 15:07:32;;;;;;;5.78;3.92;;;;;;;;;;5055162;28;20373;-90
2022/10/28 15:09:58;;;;;;;7.45;4.40;;;;;;;;;;5055011;28;20380;-90
2022/10/28 15:12:28;;;;;;;6.05;4.43;;;;;;;;;;5054685;28;20408;-90
2022/10/28 15:14:55;;;;;;;5.43;4.10;;;;;;;;;;5055135;28;20374;-90
2022/10/28 15:17:22;;;;;;;11.02;4.72;;;;;;;;;;5056241;28;20373;-89
2022/10/28 15:19:53;;;;;;;16.05;5.63;;;;;;;;;;5055876;28;20412;-89
2022/10/28 15:22:22;;;;;;;11.10;4.35;;;;;;;;;;5053844;28;20421;-90
2022/10/28 15:24:52;;;;;;;7.10;4.15;;;;;;;;;;5054775;28;20416;-91
2022/10/28 15:27:19;;;;;;;7.07;4.10;;;;;;;;;;5023722;28;20380;-89
2022/10/28 15:29:54;;;;;;;5.03;4.50;;;;;;;;;;5036487;28;20803;-89
2022/10/28 15:32:34;;;;;;;8.40;4.45;;;;;;;;;;5036892;28;20923;-91
2022/10/28 15:35:22;;;;;;;6.20;4.55;;;;;;;;;;5035449;28;20390;-90
2022/10/28 15:37:51;;;;;;;8.23;4.60;;;;;;;;;;5026106;28;20476;-87
2022/10/28 15:40:32;;;;;;;7.75;5.00;;;;;;;;;;5042916;28;20391;-89
2022/10/28 15:43:12;;;;;;;9.32;4.70;;;;;;;;;;5028907;28;20394;-89
2022/10/28 15:45:47;;;;;;;6.55;4.55;;;;;;;;;;5027073;28;20433;-88
2022/10/28 15:48:19;;;;;;;8.55;5.20;;;;;;;;;;5054707;28;20468;-89
2022/10/28 15:50:45;;;;;;;6.93;5.13;;;;;;;;;;5038469;28;20371;-88
2022/10/28 15:53:40;;;;;;;7.05;5.05;;;;;;;;;;5023797;28;20447;-87
2022/10/28 15:56:17;;;;;;;10.32;5.43;;;;;;;;;;5019951;28;20402;-89
2022/10/28 15:58:53;;;;;;;7.40;4.53;;;;;;;;;;5029730;28;20888;-87
2022/10/28 16:01:38;;;;;;;6.70;5.68;;;;;;;;;;5054047;28;20405;-86
2022/10/28 16:04:06;;;;;;;8.30;5.33;;;;;;;;;;5050704;28;20488;-85
2022/10/28 16:06:43;;;;;;;6.78;5.25;;;;;;;;;;5048545;28;20378;-88
2022/10/28 16:09:15;;;;;;;7.82;5.60;;;;;;;;;;5054314;28;20374;-88
2022/10/28 16:11:49;;;;;;;9.40;5.32;;;;;;;;;;5045140;28;20389;-87
2022/10/28 16:14:30;;;;;;;7.72;5.70;;;;;;;;;;5052595;28;20456;-88
2022/10/28 16:17:16;;;;;;;9.77;5.30;;;;;;;;;;5053821;28;20444;-86
2022/10/28 16:19:46;;;;;;;7.93;5.38;;;;;;;;;;5053604;28;20475;-87
2022/10/28 16:22:13;;;;;;;6.80;5.05;;;;;;;;;;5053775;28;20382;-87
2022/10/28 16:24:39;;;;;;;5.97;4.80;;;;;;;;;;5048581;28;20409;-87
2022/10/28 16:27:08;;;;;;;8.18;5.18;;;;;;;;;;5053648;28;20471;-87
2022/10/28 16:29:34;;;;;;;6.07;5.13;;;;;;;;;;5053582;28;20370;-86
2022/10/28 16:32:00;;;;;;;7.47;5.10;;;;;;;;;;5053418;28;20904;-87
2022/10/28 16:34:28;;;;;;;6.68;5.00;;;;;;;;;;5053596;28;20413;-86
2022/10/28 16:36:54;;;;;;;7.50;5.38;;;;;;;;;;5053806;28;20373;-87
2022/10/28 16:39:20;;;;;;;6.95;5.50;;;;;;;;;;5044670;28;20390;-86
2022/10/28 16:41:47;;;;;;;8.88;5.70;;;;;;;;;;5047952;28;20379;-84
2022/10/28 16:44:17;;;;;;;6.78;6.07;;;;;;;;;;5045593;28;20416;-85
2022/10/28 16:46:46;;;;;;;9.05;5.90;;;;;;;;;;5052945;28;20381;-83
2022/10/28 16:49:12;;;;;;;7.27;6.23;;;;;;;;;;5053622;28;20377;-86
2022/10/28 16:51:38;;;;;;;7.20;6.47;;;;;;;;;;5053109;28;20385;-86
2022/10/28 16:54:04;;;;;;;13.13;10.67;;;;;;;;;;5053422;28;20382;-86
2022/10/28 16:56:30;;;;;;;9.10;7.95;;;;;;;;;;5040500;28;20387;-85
2022/10/28 16:58:56;;;;;;;8.48;7.43;;;;;;;;;;5050443;28;20459;-84
2022/10/28 17:01:22;;;;;;;11.52;8.30;;;;;;;;;;5052732;28;20397;-85
2022/10/28 17:03:48;;;;;;;24.88;11.90;;;;;;;;;;5051912;28;20521;-85
2022/10/28 17:06:14;;;;;;;20.10;10.33;;;;;;;;;;5040727;28;20480;-84
2022/10/28 17:08:40;;;;;;;14.13;9.40;;;;;;;;;;5039057;28;20377;-84
2022/10/28 17:11:12;;;;;;;7.38;6.68;;;;;;;;;;5052801;28;20381;-84
2022/10/28 17:13:38;;;;;;;7.45;6.30;;;;;;;;;;5044944;28;20390;-84
2022/10/28 17:16:04;;;;;;;10.13;5.60;;;;;;;;;;5052876;28;20882;-84
2022/10/28 17:18:30;;;;;;;5.55;4.97;;;;;;;;;;5052409;28;20428;-84
2022/10/28 17:21:00;;;;;;;10.25;4.90;;;;;;;;;;5052625;28;20381;-85
2022/10/28 17:23:26;;;;;;;9.13;5.13;;;;;;;;;;5049171;28;20906;-84
2022/10/28 17:25:55;;;;;;;9.13;4.80;;;;;;;;;;5035084;28;20866;-85
2022/10/28 17:28:21;;;;;;;7.53;5.30;;;;;;;;;;5037127;28;20379;-84
2022/10/28 17:30:50;;;;;;;8.48;5.13;;;;;;;;;;5031878;28;20391;-85
2022/10/28 17:33:16;;;;;;;6.05;4.57;;;;;;;;;;5031423;28;20386;-83
2022/10/28 17:35:42;;;;;;;7.35;4.60;;;;;;;;;;5044954;28;20381;-84
2022/10/28 17:38:08;;;;;;;7.80;4.67;;;;;;;;;;5052349;28;20472;-83
2022/10/28 17:40:34;;;;;;;6.05;4.90;;;;;;;;;;5052399;28;20377;-85
2022/10/28 17:43:00;;;;;;;6.35;5.03;;;;;;;;;;5052550;28;20381;-85
2022/10/28 17:45:26;;;;;;;10.30;5.40;;;;;;;;;;5052330;28;20758;-84
2022/10/28 17:47:52;;;;;;;6.80;4.60;;;;;;;;;;5052235;28;20369;-86
2022/10/28 17:50:18;;;;;;;12.07;5.10;;;;;;;;;;5051983;28;20384;-85
2022/10/28 17:52:44;;;;;;;7.35;5.15;;;;;;;;;;5052165;28;20378;-85
2022/10/28 17:55:10;;;;;;;9.73;5.30;;;;;;;;;;5052162;28;20386;-86
2022/10/28 17:57:36;;;;;;;10.00;5.13;;;;;;;;;;5052230;28;20377;-85
2022/10/28 18:00:02;;;;;;;7.83;5.00;;;;;;;;;;5052060;28;20431;-85
2022/10/28 18:02:28;;;;;;;13.43;5.85;;;;;;;;;;5034083;28;20879;-84
2022/10/28 18:04:54;;;;;;;11.25;5.90;;;;;;;;;;5042709;28;20474;-85
2022/10/28 18:07:20;;;;;;;6.17;4.53;;;;;;;;;;5052017;28;20420;-84
2022/10/28 18:09:55;;;;;;;14.45;5.55;;;;;;;;;;5051989;28;20404;-85
2022/10/28 18:12:20;;;;;;;9.40;5.53;;;;;;;;;;5024605;28;20735;-85
2022/10/28 18:14:46;;;;;;;7.60;5.47;;;;;;;;;;5051933;28;20435;-85
2022/10/28 18:17:13;;;;;;;7.80;5.10;;;;;;;;;;5034500;28;20762;-85
2022/10/28 18:19:39;;;;;;;10.10;6.00;;;;;;;;;;5039182;28;20480;-86
2022/10/28 18:22:05;;;;;;;11.30;6.15;;;;;;;;;;5038810;28;20480;-86
2022/10/28 18:24:31;;;;;;;7.65;6.28;;;;;;;;;;5028368;28;20900;-85
2022/10/28 18:26:57;;;;;;;9.45;6.70;;;;;;;;;;5035893;28;20428;-86
2022/10/28 18:29:23;;;;;;;9.67;5.20;;;;;;;;;;5015581;28;20714;-85
2022/10/28 18:31:49;;;;;;;9.90;5.15;;;;;;;;;;5032521;28;20847;-85
2022/10/28 18:34:15;;;;;;;8.60;6.45;;;;;;;;;;5045172;28;20823;-85
2022/10/28 18:36:41;;;;;;;9.15;5.93;;;;;;;;;;5006274;28;20400;-86
2022/10/28 18:39:08;;;;;;;10.43;6.25;;;;;;;;;;5017833;28;20412;-86
2022/10/28 18:41:37;;;;;;;7.90;6.07;;;;;;;;;;5022279;28;20411;-87
2022/10/28 18:44:03;;;;;;;8.48;5.18;;;;;;;;;;5010278;28;20420;-87
2022/10/28 18:46:31;;;;;;;10.38;6.65;;;;;;;;;;5017584;28;20405;-87
2022/10/28 18:48:57;;;;;;;10.63;7.60;;;;;;;;;;5024727;28;20419;-87
2022/10/28 18:51:23;;;;;;;8.53;7.73;;;;;;;;;;5018763;28;20397;-87
2022/10/28 18:53:50;;;;;;;9.43;7.32;;;;;;;;;;5019965;28;20399;-86
2022/10/28 18:56:16;;;;;;;11.13;8.20;;;;;;;;;;5011566;28;20400;-87
2022/10/28 18:58:42;;;;;;;11.07;7.95;;;;;;;;;;5031698;28;20859;-87
2022/10/28 19:01:09;;;;;;;16.50;7.85;;;;;;;;;;5030528;28;20403;-88